Time;durP1;ratioP1;P1;durP2;ratioP2;P2;SDS_P1;SDS_P2;PMS_P1;PMS_P2;Temp;Humidity;BMP_temperature;BMP_pressure;BME280_temperature;BME280_humidity;BME280_pressure;Samples;Min_cycle;Max_cycle;Signal;HPM_P1;HPM_P2
2022/12/10 00:05:23;;;;;;;57.70;33.10;;;;;;;-1.05;100.00;98450.31;436711;1277;142711;-64
2022/12/10 00:15:29;;;;;;;48.00;28.80;;;;;;;-1.02;100.00;98452.45;429495;1274;144370;-63
2022/12/10 00:25:35;;;;;;;44.00;26.70;;;;;;;-1.01;100.00;98459.10;436593;1280;142461;-63
2022/12/10 00:35:40;;;;;;;39.20;26.60;;;;;;;-0.95;100.00;98451.71;436617;1281;146233;-65
2022/12/10 00:45:46;;;;;;;38.30;23.30;;;;;;;-0.95;100.00;98450.16;433042;1282;147095;-64
2022/12/10 00:55:51;;;;;;;37.30;23.90;;;;;;;-0.94;100.00;98453.04;433098;1279;145668;-65
2022/12/10 01:05:57;;;;;;;36.30;22.80;;;;;;;-0.95;100.00;98443.62;435814;1277;143317;-64
2022/12/10 01:16:04;;;;;;;43.70;23.90;;;;;;;-0.94;100.00;98446.48;436810;1280;145642;-65
2022/12/10 01:26:12;;;;;;;32.60;22.00;;;;;;;-0.92;100.00;98451.96;436718;1282;143262;-64
2022/12/10 01:36:20;;;;;;;41.20;24.30;;;;;;;-0.93;100.00;98452.48;435932;1280;142860;-65
2022/12/10 01:46:27;;;;;;;40.80;26.70;;;;;;;-0.95;100.00;98444.81;436727;1282;143357;-64
2022/12/10 01:56:36;;;;;;;36.30;22.10;;;;;;;-0.97;100.00;98436.30;421560;1274;142868;-64
2022/12/10 02:06:54;;;;;;;36.70;24.70;;;;;;;-1.00;100.00;98437.96;420697;1279;143628;-65
2022/12/10 02:17:03;;;;;;;34.80;25.00;;;;;;;-1.04;100.00;98436.52;431749;1277;142434;-64
2022/12/10 02:27:36;;;;;;;37.10;24.60;;;;;;;-1.06;100.00;98435.60;425168;1272;166899;-65
2022/12/10 02:37:48;;;;;;;35.90;25.00;;;;;;;-1.06;100.00;98438.85;421645;1279;144103;-65
2022/12/10 02:47:57;;;;;;;40.00;24.20;;;;;;;-1.07;100.00;98439.75;419841;1275;143451;-64
2022/12/10 02:58:15;;;;;;;40.60;23.30;;;;;;;-1.07;100.00;98432.69;423390;1279;212328;-64
2022/12/10 03:08:25;;;;;;;38.20;23.80;;;;;;;-1.08;100.00;98433.79;426937;1278;144829;-64
2022/12/10 03:18:34;;;;;;;37.70;25.40;;;;;;;-1.08;100.00;98435.81;428950;1272;143230;-64
2022/12/10 03:28:46;;;;;;;37.20;25.70;;;;;;;-1.07;100.00;98438.36;425191;1272;142763;-64
2022/12/10 03:38:54;;;;;;;43.30;28.00;;;;;;;-1.06;100.00;98436.60;422910;1272;147092;-65
2022/12/10 03:49:01;;;;;;;44.20;27.30;;;;;;;-1.07;100.00;98454.86;427091;1278;212452;-64
2022/12/10 03:59:07;;;;;;;44.80;28.80;;;;;;;-1.07;100.00;98450.21;419871;1278;142730;-65
2022/12/10 04:09:14;;;;;;;48.30;28.40;;;;;;;-1.11;100.00;98456.53;420992;1271;143742;-65
2022/12/10 04:19:20;;;;;;;51.90;30.20;;;;;;;-1.12;100.00;98470.65;424516;1278;144130;-64
2022/12/10 04:29:28;;;;;;;52.20;29.90;;;;;;;-1.13;100.00;98479.28;428164;1278;143075;-65
2022/12/10 04:39:34;;;;;;;53.90;31.30;;;;;;;-1.18;100.00;98475.48;419446;1279;143102;-65
2022/12/10 04:49:40;;;;;;;57.70;32.20;;;;;;;-1.17;100.00;98475.98;423718;1278;143588;-65
2022/12/10 04:59:46;;;;;;;54.20;31.50;;;;;;;-1.17;100.00;98478.89;424272;1280;145086;-65
2022/12/10 05:09:52;;;;;;;66.20;34.30;;;;;;;-1.18;100.00;98472.91;421194;1274;142600;-65
2022/12/10 05:19:57;;;;;;;53.90;31.30;;;;;;;-1.19;100.00;98482.40;423418;1279;143621;-66
2022/12/10 05:30:03;;;;;;;60.10;32.90;;;;;;;-1.19;100.00;98488.08;419462;1278;143181;-64
2022/12/10 05:40:11;;;;;;;66.60;36.20;;;;;;;-1.17;100.00;98507.77;423445;1278;147329;-65
2022/12/10 05:50:17;;;;;;;66.00;33.40;;;;;;;-1.19;100.00;98520.70;421344;1278;142544;-65
2022/12/10 06:00:23;;;;;;;68.70;37.50;;;;;;;-1.20;100.00;98528.80;422143;1279;142754;-64
2022/12/10 06:10:29;;;;;;;61.70;33.60;;;;;;;-1.23;100.00;98522.23;424523;1271;184733;-64
2022/12/10 06:20:35;;;;;;;68.80;33.70;;;;;;;-1.29;100.00;98517.05;421809;1278;143672;-64
2022/12/10 06:30:40;;;;;;;60.10;30.10;;;;;;;-1.29;100.00;98527.05;424370;1272;142448;-64
2022/12/10 06:40:46;;;;;;;55.70;30.70;;;;;;;-1.35;100.00;98523.09;425890;1278;142376;-64
2022/12/10 06:50:51;;;;;;;63.40;34.40;;;;;;;-1.38;100.00;98530.41;420269;1283;143439;-64
2022/12/10 07:01:04;;;;;;;59.20;31.60;;;;;;;-1.42;100.00;98540.84;419860;1275;199673;-64
2022/12/10 07:11:12;;;;;;;51.40;31.10;;;;;;;-1.45;100.00;98541.27;423426;1278;143571;-66
2022/12/10 07:21:20;;;;;;;52.90;30.90;;;;;;;-1.43;100.00;98542.41;421527;1278;166046;-64
2022/12/10 07:31:26;;;;;;;60.80;33.30;;;;;;;-1.43;100.00;98542.74;424907;1278;199756;-65
2022/12/10 07:41:32;;;;;;;56.20;32.20;;;;;;;-1.41;100.00;98543.38;422685;1271;144087;-65
2022/12/10 07:51:38;;;;;;;47.10;30.90;;;;;;;-1.37;100.00;98540.02;423584;1278;142890;-64
2022/12/10 08:01:43;;;;;;;47.30;29.10;;;;;;;-1.37;100.00;98539.98;425255;1281;142392;-65
2022/12/10 08:11:49;;;;;;;35.40;22.10;;;;;;;-1.33;100.00;98554.79;419825;1275;142024;-64
2022/12/10 08:21:55;;;;;;;42.80;28.40;;;;;;;-1.28;100.00;98558.77;419189;1279;211092;-66
2022/12/10 08:32:00;;;;;;;44.80;27.10;;;;;;;-1.19;100.00;98558.14;420317;1272;142290;-63
2022/12/10 08:42:06;;;;;;;46.50;29.60;;;;;;;-1.12;100.00;98558.79;426262;1275;143947;-64
2022/12/10 08:52:12;;;;;;;49.00;28.70;;;;;;;-1.06;100.00;98559.08;419559;1272;186733;-64
2022/12/10 09:02:18;;;;;;;42.50;26.50;;;;;;;-1.01;100.00;98564.27;419621;1278;143170;-64
2022/12/10 09:12:24;;;;;;;46.40;28.40;;;;;;;-0.98;100.00;98571.89;419120;1279;144075;-64
2022/12/10 09:22:31;;;;;;;46.20;27.70;;;;;;;-0.95;100.00;98570.92;421568;1272;143712;-64
2022/12/10 09:32:37;;;;;;;40.90;25.90;;;;;;;-0.83;100.00;98572.77;422585;1272;142342;-66
2022/12/10 09:42:50;;;;;;;44.10;25.00;;;;;;;-0.76;100.00;98587.67;420120;1278;142919;-67
2022/12/10 09:53:20;;;;;;;37.70;24.20;;;;;;;-0.71;100.00;98586.64;420476;1278;142981;-64
2022/12/10 10:03:26;;;;;;;43.40;27.80;;;;;;;-0.62;100.00;98564.16;421172;1272;143832;-65
2022/12/10 10:13:36;;;;;;;49.30;27.30;;;;;;;-0.45;100.00;98552.40;420813;1272;142947;-65
2022/12/10 10:23:45;;;;;;;43.20;24.90;;;;;;;-0.36;100.00;98530.77;429480;1275;142697;-65
2022/12/10 10:33:56;;;;;;;41.60;25.90;;;;;;;-0.35;100.00;98524.86;420245;1275;143227;-64
2022/12/10 10:44:03;;;;;;;44.20;29.70;;;;;;;-0.36;100.00;98526.96;421236;1279;143135;-64
2022/12/10 10:54:09;;;;;;;49.60;28.40;;;;;;;-0.39;100.00;98524.33;427859;1275;145988;-64
2022/12/10 11:04:16;;;;;;;41.90;25.40;;;;;;;-0.45;100.00;98527.63;436667;1281;143100;-64
2022/12/10 11:14:30;;;;;;;42.10;27.00;;;;;;;-0.36;100.00;98516.65;436495;1281;143333;-66
2022/12/10 11:24:44;;;;;;;35.80;23.30;;;;;;;-0.37;99.98;98511.70;435772;1278;144890;-64
2022/12/10 11:35:03;;;;;;;34.00;22.10;;;;;;;-0.47;100.00;98515.83;431117;1272;146207;-65
2022/12/10 11:45:19;;;;;;;33.70;22.30;;;;;;;-0.51;100.00;98518.39;435786;1273;144365;-65
2022/12/10 11:55:36;;;;;;;37.90;23.20;;;;;;;-0.65;100.00;98527.48;428390;1271;144243;-65
2022/12/10 12:06:04;;;;;;;33.80;23.40;;;;;;;-0.56;100.00;98546.05;436566;1274;142295;-65
2022/12/10 12:16:17;;;;;;;36.50;23.20;;;;;;;-0.44;99.99;98554.43;431825;1279;214196;-64
2022/12/10 12:26:30;;;;;;;33.60;23.40;;;;;;;-0.40;99.89;98558.59;436670;1274;143366;-64
2022/12/10 12:36:37;;;;;;;32.80;20.80;;;;;;;-0.36;99.93;98556.52;435915;1274;143867;-64
2022/12/10 12:46:45;;;;;;;34.20;21.70;;;;;;;-0.33;99.65;98557.27;436490;1282;144063;-64
2022/12/10 12:57:04;;;;;;;32.50;19.20;;;;;;;-0.26;99.79;98562.04;436593;1281;143029;-65
2022/12/10 13:07:29;;;;;;;32.30;20.10;;;;;;;-0.28;99.73;98571.02;436048;1281;214504;-65
2022/12/10 13:17:37;;;;;;;29.50;19.50;;;;;;;-0.32;99.62;98569.48;436562;1280;142648;-65
2022/12/10 13:27:54;;;;;;;35.90;21.20;;;;;;;-0.36;99.64;98571.51;435883;1282;144560;-65
2022/12/10 13:38:17;;;;;;;34.40;20.40;;;;;;;-0.43;99.52;98569.34;436713;1274;143649;-66
2022/12/10 13:48:43;;;;;;;34.90;20.30;;;;;;;-0.49;99.80;98583.84;424670;1272;143076;-64
2022/12/10 13:58:57;;;;;;;35.90;21.80;;;;;;;-0.53;99.66;98559.89;422784;1272;142164;-64
2022/12/10 14:09:07;;;;;;;35.40;24.40;;;;;;;-0.64;99.93;98532.08;432896;1272;187196;-65
2022/12/10 14:19:17;;;;;;;35.30;20.60;;;;;;;-0.66;99.85;98542.12;436432;1280;148457;-65
2022/12/10 14:29:23;;;;;;;34.80;23.00;;;;;;;-0.75;99.81;98537.80;436589;1280;143450;-65
2022/12/10 14:39:35;;;;;;;35.50;22.60;;;;;;;-0.75;100.00;98553.23;435842;1279;143427;-66
2022/12/10 14:49:45;;;;;;;31.90;23.30;;;;;;;-0.69;100.00;98569.05;436247;1274;143668;-64
2022/12/10 14:59:58;;;;;;;35.80;21.70;;;;;;;-0.66;100.00;98583.39;436463;1280;142968;-64
2022/12/10 15:10:08;;;;;;;30.50;20.30;;;;;;;-0.68;99.96;98592.89;436211;1281;212128;-65
2022/12/10 15:20:31;;;;;;;33.50;23.50;;;;;;;-0.64;99.99;98580.55;426230;1279;185429;-65
2022/12/10 15:30:39;;;;;;;33.90;19.50;;;;;;;-0.68;100.00;98598.56;436100;1281;142577;-66
2022/12/10 15:40:45;;;;;;;33.00;21.00;;;;;;;-0.72;100.00;98610.22;429090;1279;144060;-65
2022/12/10 15:50:52;;;;;;;41.60;24.20;;;;;;;-0.76;100.00;98607.40;424846;1279;144169;-65
2022/12/10 16:00:58;;;;;;;37.60;23.30;;;;;;;-0.73;100.00;98612.82;436513;1275;210062;-66
2022/12/10 16:11:13;;;;;;;33.90;20.80;;;;;;;-0.75;100.00;98613.91;435809;1282;145940;-64
2022/12/10 16:21:19;;;;;;;40.80;23.60;;;;;;;-0.77;100.00;98602.13;436259;1272;143631;-65
2022/12/10 16:31:25;;;;;;;36.50;21.40;;;;;;;-0.83;100.00;98597.86;436971;1277;143956;-65
2022/12/10 16:41:31;;;;;;;45.70;25.50;;;;;;;-0.86;100.00;98601.39;430670;1281;143229;-65
2022/12/10 16:51:38;;;;;;;48.30;25.80;;;;;;;-0.86;100.00;98612.71;425629;1280;143300;-64
2022/12/10 17:01:42;;;;;;;;;;;;;;;-0.89;100.00;98609.23;436493;1274;144240;-65
2022/12/10 17:11:48;;;;;;;40.70;24.40;;;;;;;-0.82;100.00;98614.67;433148;1279;130723;-67
2022/12/10 17:21:54;;;;;;;43.70;23.70;;;;;;;-0.79;100.00;98624.89;435973;1278;214331;-65
2022/12/10 17:32:00;;;;;;;36.00;20.80;;;;;;;-0.77;100.00;98629.27;430772;1279;148289;-65
2022/12/10 17:42:10;;;;;;;34.80;21.40;;;;;;;-0.76;100.00;98613.60;435803;1280;144342;-66
2022/12/10 17:52:15;;;;;;;48.00;25.60;;;;;;;-0.86;100.00;98609.48;436637;1281;144149;-66
2022/12/10 18:02:21;;;;;;;44.60;23.40;;;;;;;-0.82;100.00;98604.02;436763;1281;143579;-65
2022/12/10 18:12:27;;;;;;;41.70;22.30;;;;;;;-0.88;100.00;98606.60;435991;1282;142720;-65
2022/12/10 18:22:32;;;;;;;35.90;21.80;;;;;;;-0.86;100.00;98613.06;436784;1281;143252;-65
2022/12/10 18:32:38;;;;;;;38.20;22.60;;;;;;;-0.87;100.00;98618.61;436742;1280;143066;-65
2022/12/10 18:42:44;;;;;;;34.50;22.80;;;;;;;-0.99;100.00;98625.17;436028;1281;143406;-65
2022/12/10 18:52:52;;;;;;;38.20;22.40;;;;;;;-1.06;100.00;98627.98;436771;1282;143686;-65
2022/12/10 19:02:58;;;;;;;40.60;22.90;;;;;;;-1.11;100.00;98621.25;436013;1282;185238;-66
2022/12/10 19:13:03;;;;;;;42.10;21.70;;;;;;;-1.18;100.00;98626.48;436726;1282;142322;-65
2022/12/10 19:23:09;;;;;;;35.60;19.40;;;;;;;-1.32;100.00;98620.54;436772;1278;142182;-66
2022/12/10 19:33:15;;;;;;;31.50;19.10;;;;;;;-1.44;100.00;98614.89;436016;1282;144425;-66
2022/12/10 19:43:20;;;;;;;35.80;20.60;;;;;;;-1.52;100.00;98614.64;436739;1281;143621;-66
2022/12/10 19:53:26;;;;;;;31.20;21.60;;;;;;;-1.63;100.00;98613.90;436775;1281;142765;-65
2022/12/10 20:03:52;;;;;;;33.50;20.80;;;;;;;-1.63;100.00;98618.89;435940;1274;143558;-66
2022/12/10 20:13:58;;;;;;;27.80;19.40;;;;;;;-1.60;100.00;98620.02;436728;1281;144376;-66
2022/12/10 20:24:05;;;;;;;26.00;18.00;;;;;;;-1.58;100.00;98614.46;435999;1288;142847;-66
2022/12/10 20:34:12;;;;;;;23.20;15.90;;;;;;;-1.56;100.00;98608.55;436647;1277;144838;-66
2022/12/10 20:44:21;;;;;;;24.00;17.10;;;;;;;-1.54;100.00;98616.91;432405;1279;144481;-67
2022/12/10 20:54:27;;;;;;;27.40;18.70;;;;;;;-1.56;100.00;98611.13;436023;1282;143373;-66
2022/12/10 21:04:53;;;;;;;31.60;19.80;;;;;;;-1.51;100.00;98612.90;436740;1280;143052;-66
2022/12/10 21:14:59;;;;;;;30.60;18.20;;;;;;;-1.45;100.00;98604.79;435808;1282;142505;-67
2022/12/10 21:25:22;;;;;;;25.90;17.10;;;;;;;-1.49;99.93;98591.19;436728;1281;143036;-67
2022/12/10 21:35:31;;;;;;;32.70;20.70;;;;;;;-1.56;99.74;98594.14;436735;1282;142934;-67
2022/12/10 21:45:37;;;;;;;30.30;20.90;;;;;;;-1.66;99.81;98593.59;420205;1272;143723;-66
2022/12/10 21:55:43;;;;;;;31.20;20.80;;;;;;;-1.71;100.00;98602.49;420401;1278;142525;-67
2022/12/10 22:05:49;;;;;;;32.30;21.70;;;;;;;-1.76;99.79;98607.42;436690;1277;146568;-66
2022/12/10 22:15:55;;;;;;;28.40;19.70;;;;;;;-1.82;99.83;98617.23;436246;1277;143257;-66
2022/12/10 22:26:06;;;;;;;32.20;19.90;;;;;;;-1.86;99.64;98611.65;436718;1280;143087;-66
2022/12/10 22:36:12;;;;;;;26.80;17.70;;;;;;;-1.90;99.56;98602.86;435930;1287;144273;-66
2022/12/10 22:46:18;;;;;;;25.20;17.70;;;;;;;-1.86;99.69;98590.91;436588;1281;143118;-66
2022/12/10 22:56:24;;;;;;;25.70;18.00;;;;;;;-1.86;99.40;98575.67;436471;1280;143071;-67
2022/12/10 23:06:29;;;;;;;24.40;18.10;;;;;;;-1.89;99.48;98563.73;435770;1278;142567;-66
2022/12/10 23:16:35;;;;;;;29.50;20.70;;;;;;;-1.95;99.55;98556.36;428753;1278;143761;-67
2022/12/10 23:26:41;;;;;;;24.00;17.20;;;;;;;-2.01;99.46;98549.33;436566;1279;142909;-65
2022/12/10 23:36:49;;;;;;;26.60;18.90;;;;;;;-2.02;99.41;98549.67;435806;1279;196364;-66
2022/12/10 23:47:15;;;;;;;26.80;18.60;;;;;;;-1.94;99.61;98545.51;436556;1281;144811;-67
2022/12/10 23:57:20;;;;;;;26.40;17.50;;;;;;;-1.97;99.27;98539.41;434486;1280;142937;-66
